Time;durP1;ratioP1;P1;durP2;ratioP2;P2;SDS_P1;SDS_P2;PMS_P1;PMS_P2;Temp;Humidity;BMP_temperature;BMP_pressure;BME280_temperature;BME280_humidity;BME280_pressure;Samples;Min_cycle;Max_cycle;Signal;HPM_P1;HPM_P2
2022/11/06 00:01:12;;;;;;;;;;;7.30;99.90;;;;;;5106525;28;19908;-72
2022/11/06 00:03:38;;;;;;;;;;;7.30;99.90;;;;;;5106259;28;19908;-72
2022/11/06 00:08:55;;;;;;;;;;;7.30;99.90;;;;;;5106239;28;19922;-72
2022/11/06 00:11:21;;;;;;;;;;;7.20;99.90;;;;;;5106336;28;19936;-72
2022/11/06 00:13:46;;;;;;;;;;;7.20;99.90;;;;;;5106105;28;19919;-72
2022/11/06 00:16:12;;;;;;;;;;;7.20;99.90;;;;;;5105877;28;19915;-72
2022/11/06 00:18:38;;;;;;;;;;;7.20;99.90;;;;;;5105690;28;19919;-72
2022/11/06 00:21:17;;;;;;;;;;;7.10;99.90;;;;;;5088112;28;19908;-71
2022/11/06 00:23:43;;;;;;;;;;;7.10;99.90;;;;;;5105985;28;19908;-72
2022/11/06 00:26:12;;;;;;;;;;;7.00;99.90;;;;;;5105726;28;19914;-72
2022/11/06 00:28:38;;;;;;;;;;;6.90;99.90;;;;;;5105946;28;19911;-71
2022/11/06 00:31:05;;;;;;;;;;;6.90;99.90;;;;;;5087840;28;20115;-72
2022/11/06 00:33:31;;;;;;;;;;;6.90;99.90;;;;;;5105646;28;19908;-72
2022/11/06 00:35:57;;;;;;;;;;;6.90;99.90;;;;;;5105526;28;19923;-72
2022/11/06 00:38:22;;;;;;;;;;;6.80;99.90;;;;;;5087600;28;19911;-72
2022/11/06 00:40:48;;;;;;;;;;;6.80;99.90;;;;;;5105749;28;20000;-72
2022/11/06 00:43:13;;;;;;;;;;;6.70;99.90;;;;;;5106245;28;19912;-72
2022/11/06 00:45:39;;;;;;;;;;;6.70;99.90;;;;;;5105715;28;19908;-72
2022/11/06 00:48:05;;;;;;;;;;;6.60;99.90;;;;;;5105057;28;20222;-72
2022/11/06 00:50:31;;;;;;;;;;;6.60;99.90;;;;;;5105522;28;20234;-72
2022/11/06 00:52:57;;;;;;;;;;;6.50;99.90;;;;;;5105505;28;19916;-72
2022/11/06 00:55:22;;;;;;;;;;;6.50;99.90;;;;;;5087374;28;19931;-72
2022/11/06 00:57:48;;;;;;;;;;;6.40;99.90;;;;;;5086887;28;19974;-72
2022/11/06 01:00:16;;;;;;;;;;;6.40;99.90;;;;;;5104311;28;19912;-72
2022/11/06 01:02:44;;;;;;;;;;;6.30;99.90;;;;;;5104239;28;19909;-72
2022/11/06 01:05:10;;;;;;;;;;;6.30;99.90;;;;;;5105200;28;19908;-72
2022/11/06 01:07:35;;;;;;;;;;;6.30;99.90;;;;;;5086939;28;20117;-72
2022/11/06 01:10:01;;;;;;;;;;;6.30;99.90;;;;;;5105185;28;19978;-72
2022/11/06 01:12:29;;;;;;;;;;;6.30;99.90;;;;;;5104144;28;19944;-72
2022/11/06 01:14:55;;;;;;;;;;;6.30;99.90;;;;;;5070804;28;19983;-72
2022/11/06 01:17:20;;;;;;;;;;;6.30;99.90;;;;;;5104267;28;19920;-72
2022/11/06 01:19:46;;;;;;;;;;;6.30;99.90;;;;;;5104898;28;19924;-72
2022/11/06 01:22:11;;;;;;;;;;;6.30;99.90;;;;;;5104978;28;20202;-72
2022/11/06 01:24:37;;;;;;;;;;;6.20;99.90;;;;;;5104892;28;20115;-72
2022/11/06 01:27:03;;;;;;;;;;;6.10;99.90;;;;;;5104557;28;20102;-72
2022/11/06 01:29:29;;;;;;;;;;;6.10;99.90;;;;;;5104714;28;19908;-72
2022/11/06 01:31:54;;;;;;;;;;;6.00;99.90;;;;;;5104464;28;19908;-72
2022/11/06 01:34:20;;;;;;;;;;;6.00;99.90;;;;;;5104612;28;20259;-72
2022/11/06 01:36:46;;;;;;;;;;;6.00;99.90;;;;;;5104209;28;20375;-72
2022/11/06 01:39:12;;;;;;;;;;;6.10;99.90;;;;;;5104595;28;19944;-72
2022/11/06 01:41:40;;;;;;;;;;;6.00;99.90;;;;;;5104633;28;19916;-72
2022/11/06 01:44:31;;;;;;;;;;;6.10;99.90;;;;;;5104520;28;19907;-72
2022/11/06 01:46:57;;;;;;;;;;;6.10;99.90;;;;;;5103770;28;19916;-72
2022/11/06 01:49:23;;;;;;;;;;;6.10;99.90;;;;;;5104403;28;19908;-72
2022/11/06 01:51:51;;;;;;;;;;;6.10;99.90;;;;;;5104360;28;19908;-72
2022/11/06 01:54:17;;;;;;;;;;;6.10;99.90;;;;;;5086719;28;19971;-72
2022/11/06 01:56:43;;;;;;;;;;;6.10;99.90;;;;;;5102819;28;20194;-71
2022/11/06 01:59:12;;;;;;;;;;;6.10;99.90;;;;;;5086001;28;19997;-71
2022/11/06 02:01:37;;;;;;;;;;;6.00;99.90;;;;;;5103032;28;20155;-72
2022/11/06 02:04:23;;;;;;;;;;;6.00;99.90;;;;;;5103848;28;19915;-72
2022/11/06 02:06:49;;;;;;;;;;;5.90;99.90;;;;;;5086424;28;20198;-71
2022/11/06 02:09:15;;;;;;;;;;;5.80;99.90;;;;;;5104201;28;19915;-72
2022/11/06 02:11:42;;;;;;;;;;;5.70;99.90;;;;;;5102859;28;19916;-72
2022/11/06 02:14:22;;;;;;;;;;;5.60;99.90;;;;;;5085997;28;19908;-72
2022/11/06 02:16:54;;;;;;;;;;;5.60;99.90;;;;;;5085870;28;19912;-72
2022/11/06 02:19:43;;;;;;;;;;;5.50;99.90;;;;;;5103910;28;19912;-72
2022/11/06 02:22:53;;;;;;;;;;;5.50;99.90;;;;;;5103219;28;19930;-72
2022/11/06 02:25:43;;;;;;;;;;;5.40;99.90;;;;;;5086572;28;19983;-72
2022/11/06 02:28:22;;;;;;;;;;;5.40;99.90;;;;;;5085870;28;19956;-72
2022/11/06 02:30:47;;;;;;;;;;;5.30;99.90;;;;;;5085589;28;19953;-72
2022/11/06 02:33:24;;;;;;;;;;;5.30;99.90;;;;;;5085362;28;19919;-72
2022/11/06 02:35:52;;;;;;;;;;;5.20;99.90;;;;;;5085458;28;19908;-72
2022/11/06 02:38:22;;;;;;;;;;;5.30;99.90;;;;;;5085173;28;20139;-72
2022/11/06 02:40:50;;;;;;;;;;;5.30;99.90;;;;;;5068561;28;20084;-72
2022/11/06 02:43:15;;;;;;;;;;;5.30;99.90;;;;;;5085357;28;19911;-72
2022/11/06 02:45:53;;;;;;;;;;;5.30;99.90;;;;;;5102184;28;20084;-72
2022/11/06 02:48:20;;;;;;;;;;;5.30;99.90;;;;;;5085002;28;20167;-72
2022/11/06 02:50:46;;;;;;;;;;;5.20;99.90;;;;;;5068691;28;19908;-72
2022/11/06 02:53:13;;;;;;;;;;;5.20;99.90;;;;;;5068612;28;19945;-72
2022/11/06 02:55:53;;;;;;;;;;;5.20;99.90;;;;;;5085183;28;19977;-72
2022/11/06 02:58:40;;;;;;;;;;;5.20;99.90;;;;;;5084901;28;19920;-72
2022/11/06 03:01:21;;;;;;;;;;;5.20;99.90;;;;;;5085387;28;19950;-72
2022/11/06 03:03:50;;;;;;;;;;;5.20;99.90;;;;;;5068258;28;19908;-72
2022/11/06 03:06:28;;;;;;;;;;;5.20;99.90;;;;;;5084911;28;19915;-72
2022/11/06 03:09:03;;;;;;;;;;;5.20;99.90;;;;;;5084999;28;19983;-72
2022/11/06 03:11:30;;;;;;;;;;;5.20;99.90;;;;;;5085286;28;20226;-72
2022/11/06 03:14:20;;;;;;;;;;;5.20;99.90;;;;;;5102995;28;20147;-72
2022/11/06 03:16:59;;;;;;;;;;;5.20;99.90;;;;;;5067832;28;19919;-72
2022/11/06 03:19:47;;;;;;;;;;;5.20;99.90;;;;;;5102472;28;19990;-71
2022/11/06 03:22:20;;;;;;;;;;;5.20;99.90;;;;;;5102861;28;19916;-71
2022/11/06 03:24:56;;;;;;;;;;;5.10;99.90;;;;;;5084363;28;19923;-72
2022/11/06 03:27:30;;;;;;;;;;;5.10;99.90;;;;;;5085824;28;19970;-72
2022/11/06 03:30:00;;;;;;;;;;;5.10;99.90;;;;;;5085977;28;19932;-71
2022/11/06 03:32:38;;;;;;;;;;;5.00;99.90;;;;;;5084606;28;19908;-72
2022/11/06 03:35:16;;;;;;;;;;;5.00;99.90;;;;;;5086284;28;19950;-71
2022/11/06 03:37:50;;;;;;;;;;;4.90;99.90;;;;;;5102279;28;19934;-71
2022/11/06 03:40:17;;;;;;;;;;;4.90;99.90;;;;;;5084920;28;19912;-72
2022/11/06 03:42:43;;;;;;;;;;;4.90;99.90;;;;;;5068012;28;19953;-72
2022/11/06 03:45:12;;;;;;;;;;;4.90;99.90;;;;;;5101439;28;19916;-72
2022/11/06 03:47:41;;;;;;;;;;;4.80;99.90;;;;;;5083843;28;19978;-71
2022/11/06 03:50:11;;;;;;;;;;;4.80;99.90;;;;;;5102553;28;19908;-72
2022/11/06 03:52:43;;;;;;;;;;;4.70;99.90;;;;;;5084585;28;20199;-72
2022/11/06 03:55:17;;;;;;;;;;;4.70;99.90;;;;;;5084579;28;19911;-72
2022/11/06 03:57:53;;;;;;;;;;;4.60;99.90;;;;;;5084100;28;19912;-72
2022/11/06 04:00:19;;;;;;;;;;;4.60;99.90;;;;;;5102371;28;19908;-72
2022/11/06 04:02:50;;;;;;;;;;;4.50;99.90;;;;;;5102198;28;20111;-72
2022/11/06 04:05:20;;;;;;;;;;;4.50;99.90;;;;;;5084431;28;19912;-72
2022/11/06 04:13:56;;;;;;;;;;;4.40;99.90;;;;;;5084050;28;19948;-72
2022/11/06 04:16:12;;;;;;;;;;;4.20;99.90;;;;;;5057053;28;20046;-71
2022/11/06 04:18:38;;;;;;;;;;;4.20;99.90;;;;;;5101708;28;20115;-72
2022/11/06 04:21:42;;;;;;;;;;;4.10;99.90;;;;;;5102169;28;20301;-72
2022/11/06 04:27:57;;;;;;;;;;;4.10;99.90;;;;;;5101910;28;19923;-72
2022/11/06 04:30:23;;;;;;;;;;;4.10;99.90;;;;;;5101548;28;19908;-71
2022/11/06 04:32:48;;;;;;;;;;;4.10;99.90;;;;;;5083983;28;20254;-72
2022/11/06 04:35:16;;;;;;;;;;;4.20;99.90;;;;;;5102119;28;19923;-72
2022/11/06 04:37:49;;;;;;;;;;;4.10;99.90;;;;;;5104559;28;19989;-72
2022/11/06 04:40:19;;;;;;;;;;;4.10;99.90;;;;;;5087895;28;19961;-72
2022/11/06 04:42:57;;;;;;;;;;;4.10;99.90;;;;;;5087670;28;20219;-72
2022/11/06 04:45:31;;;;;;;;;;;4.10;99.90;;;;;;5087747;28;19951;-72
2022/11/06 04:47:57;;;;;;;;;;;4.10;99.90;;;;;;5087150;28;19975;-72
2022/11/06 04:50:23;;;;;;;;;;;4.10;99.90;;;;;;5087594;28;19915;-72
2022/11/06 04:52:49;;;;;;;;;;;4.00;99.90;;;;;;5087520;28;20226;-71
2022/11/06 04:55:15;;;;;;;;;;;4.00;99.90;;;;;;5104389;28;19908;-71
2022/11/06 04:57:41;;;;;;;;;;;4.00;99.90;;;;;;5087042;28;19934;-72
2022/11/06 05:00:09;;;;;;;;;;;3.90;99.90;;;;;;5105373;28;20195;-72
2022/11/06 05:02:35;;;;;;;;;;;4.00;99.90;;;;;;5087009;28;20205;-71
2022/11/06 05:05:01;;;;;;;;;;;4.00;99.90;;;;;;5105297;28;19970;-72
2022/11/06 05:07:26;;;;;;;;;;;4.00;99.90;;;;;;5104859;28;19908;-72
2022/11/06 05:09:52;;;;;;;;;;;4.00;99.90;;;;;;5087320;28;19916;-72
2022/11/06 05:12:17;;;;;;;;;;;4.10;99.90;;;;;;5105139;28;20256;-72
2022/11/06 05:14:43;;;;;;;;;;;4.10;99.90;;;;;;5087176;28;20152;-72
2022/11/06 05:17:09;;;;;;;;;;;4.20;99.90;;;;;;5104622;28;20127;-72
2022/11/06 05:19:34;;;;;;;;;;;4.20;99.90;;;;;;5086629;28;20174;-71
2022/11/06 05:24:44;;;;;;;;;;;4.20;99.90;;;;;;5105072;28;19923;-72
2022/11/06 05:27:10;;;;;;;;;;;4.20;99.90;;;;;;5086473;28;19908;-72
2022/11/06 05:29:35;;;;;;;;;;;4.10;99.90;;;;;;5104628;28;19908;-72
2022/11/06 05:32:01;;;;;;;;;;;4.10;99.90;;;;;;5104791;28;19981;-72
2022/11/06 05:34:27;;;;;;;;;;;4.10;99.90;;;;;;5104544;28;19908;-71
2022/11/06 05:36:52;;;;;;;;;;;4.20;99.90;;;;;;5086352;28;20268;-72
2022/11/06 05:39:18;;;;;;;;;;;4.10;99.90;;;;;;5104547;28;20249;-72
2022/11/06 05:41:44;;;;;;;;;;;4.10;99.90;;;;;;5104568;28;20138;-72
2022/11/06 05:44:09;;;;;;;;;;;4.10;99.90;;;;;;5104500;28;19938;-72
2022/11/06 05:46:35;;;;;;;;;;;4.10;99.90;;;;;;5104192;28;19912;-72
2022/11/06 05:49:01;;;;;;;;;;;4.10;99.90;;;;;;5103866;28;19962;-72
2022/11/06 05:51:26;;;;;;;;;;;4.10;99.90;;;;;;5086118;28;19909;-71
2022/11/06 05:53:52;;;;;;;;;;;4.10;99.90;;;;;;5104341;28;19908;-72
2022/11/06 05:56:18;;;;;;;;;;;4.10;99.90;;;;;;5085949;28;19954;-72
2022/11/06 05:58:43;;;;;;;;;;;4.20;99.90;;;;;;5104079;28;19912;-71
2022/11/06 06:01:09;;;;;;;;;;;4.20;99.90;;;;;;5104217;28;19943;-72
2022/11/06 06:03:34;;;;;;;;;;;4.10;99.90;;;;;;5085965;28;19916;-72
2022/11/06 06:06:00;;;;;;;;;;;4.00;99.90;;;;;;5103545;28;20145;-71
2022/11/06 06:08:26;;;;;;;;;;;4.00;99.90;;;;;;5103889;28;20115;-72
2022/11/06 06:10:51;;;;;;;;;;;4.00;99.90;;;;;;5103993;28;19908;-71
2022/11/06 06:13:17;;;;;;;;;;;4.00;99.90;;;;;;5103814;28;19908;-72
2022/11/06 06:15:43;;;;;;;;;;;3.90;99.90;;;;;;5103885;28;19908;-72
2022/11/06 06:18:09;;;;;;;;;;;3.80;99.90;;;;;;5103140;28;19939;-72
2022/11/06 06:20:35;;;;;;;;;;;3.80;99.90;;;;;;5103815;28;20119;-72
2022/11/06 06:23:00;;;;;;;;;;;3.70;99.90;;;;;;5103752;28;19908;-71
2022/11/06 06:25:27;;;;;;;;;;;3.70;99.90;;;;;;5103426;28;19957;-71
2022/11/06 06:27:52;;;;;;;;;;;3.60;99.90;;;;;;5068634;28;19908;-72
2022/11/06 06:30:18;;;;;;;;;;;3.70;99.90;;;;;;5103633;28;19983;-71
2022/11/06 06:32:44;;;;;;;;;;;3.70;99.90;;;;;;5103377;28;19916;-72
2022/11/06 06:35:10;;;;;;;;;;;3.70;99.90;;;;;;5097457;28;20038;-72
2022/11/06 06:37:35;;;;;;;;;;;3.70;99.90;;;;;;5095922;28;19927;-72
2022/11/06 06:40:01;;;;;;;;;;;3.70;99.90;;;;;;5097045;28;19940;-72
2022/11/06 06:42:27;;;;;;;;;;;3.70;99.90;;;;;;5103154;28;19914;-72
2022/11/06 06:44:53;;;;;;;;;;;3.70;99.90;;;;;;5102764;28;19916;-72
2022/11/06 06:47:19;;;;;;;;;;;3.70;99.90;;;;;;5096191;28;19921;-71
2022/11/06 06:49:44;;;;;;;;;;;3.70;99.90;;;;;;5092677;28;19915;-72
2022/11/06 06:52:10;;;;;;;;;;;3.70;99.90;;;;;;5070429;28;19909;-72
2022/11/06 06:54:36;;;;;;;;;;;3.70;99.90;;;;;;5082890;28;20258;-72
2022/11/06 06:57:02;;;;;;;;;;;3.60;99.90;;;;;;5082487;28;19912;-72
2022/11/06 06:59:28;;;;;;;;;;;3.70;99.90;;;;;;5090444;28;20249;-72
2022/11/06 07:01:54;;;;;;;;;;;3.70;99.90;;;;;;5101184;28;19978;-72
2022/11/06 07:04:19;;;;;;;;;;;3.80;99.90;;;;;;5092484;28;19947;-72
2022/11/06 07:06:45;;;;;;;;;;;3.90;99.90;;;;;;5101316;28;20084;-72
2022/11/06 07:09:11;;;;;;;;;;;4.00;99.90;;;;;;5102788;28;20263;-72
2022/11/06 07:11:36;;;;;;;;;;;4.00;99.90;;;;;;5102548;28;19915;-71
2022/11/06 07:14:02;;;;;;;;;;;3.90;99.90;;;;;;5094459;28;19915;-72
2022/11/06 07:16:28;;;;;;;;;;;3.90;99.90;;;;;;5102502;28;19908;-72
2022/11/06 07:18:56;;;;;;;;;;;3.80;99.90;;;;;;5101735;28;20130;-72
2022/11/06 07:21:22;;;;;;;;;;;3.90;99.90;;;;;;5099510;28;19912;-72
2022/11/06 07:23:47;;;;;;;;;;;3.80;99.90;;;;;;5096526;28;19919;-72
2022/11/06 07:26:13;;;;;;;;;;;3.90;99.90;;;;;;5097688;28;19912;-72
2022/11/06 07:28:39;;;;;;;;;;;4.00;99.90;;;;;;5101586;28;20261;-71
2022/11/06 07:31:05;;;;;;;;;;;4.00;99.90;;;;;;5096897;28;19934;-72
2022/11/06 07:33:31;;;;;;;;;;;4.10;99.90;;;;;;5102302;28;19924;-72
2022/11/06 07:36:07;;;;;;;;;;;4.10;99.90;;;;;;5102537;28;20248;-73
2022/11/06 07:38:33;;;;;;;;;;;4.20;99.90;;;;;;5101192;28;19912;-72
2022/11/06 07:41:03;;;;;;;;;;;4.20;99.90;;;;;;5101495;28;19927;-72
2022/11/06 07:43:28;;;;;;;;;;;4.20;99.90;;;;;;5095606;28;19919;-71
2022/11/06 07:45:57;;;;;;;;;;;4.30;99.90;;;;;;5095201;28;19983;-73
2022/11/06 07:48:23;;;;;;;;;;;4.30;99.90;;;;;;5073150;28;19912;-72
2022/11/06 07:50:48;;;;;;;;;;;4.30;99.90;;;;;;5097204;28;20223;-72
2022/11/06 07:53:14;;;;;;;;;;;4.30;99.90;;;;;;5095723;28;19986;-72
2022/11/06 07:55:47;;;;;;;;;;;4.30;99.90;;;;;;5091772;28;19919;-72
2022/11/06 07:58:12;;;;;;;;;;;4.40;99.90;;;;;;5087108;28;19962;-72
2022/11/06 08:00:38;;;;;;;;;;;4.40;99.90;;;;;;5100724;28;19908;-72
2022/11/06 08:03:03;;;;;;;;;;;4.40;99.90;;;;;;5063616;28;19933;-72
2022/11/06 08:05:29;;;;;;;;;;;4.40;99.90;;;;;;5097493;28;19927;-72
2022/11/06 08:07:56;;;;;;;;;;;4.60;99.90;;;;;;5093962;28;19944;-72
2022/11/06 08:10:21;;;;;;;;;;;4.60;99.90;;;;;;5098123;28;19912;-72
2022/11/06 08:12:47;;;;;;;;;;;4.60;99.90;;;;;;5101460;28;19943;-72
2022/11/06 08:15:13;;;;;;;;;;;4.70;99.90;;;;;;5098472;28;19943;-72
2022/11/06 08:17:38;;;;;;;;;;;4.70;99.90;;;;;;5088315;28;19917;-72
2022/11/06 08:20:05;;;;;;;;;;;4.80;99.90;;;;;;5078776;28;19920;-73
2022/11/06 08:22:30;;;;;;;;;;;4.80;99.90;;;;;;5083157;28;19939;-80
2022/11/06 08:24:56;;;;;;;;;;;4.80;99.90;;;;;;5105475;28;20103;-78
2022/11/06 08:27:22;;;;;;;;;;;4.80;99.90;;;;;;5097482;28;19920;-73
2022/11/06 08:29:47;;;;;;;;;;;4.80;99.90;;;;;;5075288;28;20123;-75
2022/11/06 08:32:13;;;;;;;;;;;4.90;99.90;;;;;;5089567;28;19920;-77
2022/11/06 08:34:41;;;;;;;;;;;4.90;99.90;;;;;;5105357;28;19919;-71
2022/11/06 08:37:08;;;;;;;;;;;5.00;99.90;;;;;;5105432;28;19957;-76
2022/11/06 08:39:33;;;;;;;;;;;5.10;99.90;;;;;;5087531;28;19908;-76
2022/11/06 08:42:00;;;;;;;;;;;5.20;99.90;;;;;;5103586;28;20164;-73
2022/11/06 08:44:26;;;;;;;;;;;5.30;99.90;;;;;;5096529;28;20211;-74
2022/11/06 08:46:51;;;;;;;;;;;5.30;99.90;;;;;;5095733;28;19912;-74
2022/11/06 08:49:17;;;;;;;;;;;5.40;99.90;;;;;;5099330;28;19919;-72
2022/11/06 08:51:43;;;;;;;;;;;5.40;99.90;;;;;;5105390;28;19911;-76
2022/11/06 08:54:10;;;;;;;;;;;5.50;99.90;;;;;;5094216;28;19947;-75
2022/11/06 08:56:35;;;;;;;;;;;5.40;99.90;;;;;;5067741;28;19966;-72
2022/11/06 08:59:01;;;;;;;;;;;5.50;99.90;;;;;;5095685;28;19908;-75
2022/11/06 09:01:27;;;;;;;;;;;5.60;99.90;;;;;;5077093;28;19912;-74
2022/11/06 09:03:52;;;;;;;;;;;5.60;99.90;;;;;;5077749;28;20166;-79
2022/11/06 09:06:18;;;;;;;;;;;5.70;99.90;;;;;;5100467;28;19916;-76
2022/11/06 09:08:44;;;;;;;;;;;5.70;99.90;;;;;;5093077;28;19943;-77
2022/11/06 09:11:15;;;;;;;;;;;5.70;99.90;;;;;;5093824;28;19920;-75
2022/11/06 09:13:41;;;;;;;;;;;5.70;99.90;;;;;;5091013;28;19917;-76
2022/11/06 09:16:06;;;;;;;;;;;5.70;99.90;;;;;;5084412;28;19916;-75
2022/11/06 09:18:32;;;;;;;;;;;5.70;99.90;;;;;;5052144;28;19924;-78
2022/11/06 09:20:58;;;;;;;;;;;5.70;99.90;;;;;;5094104;28;19967;-74
2022/11/06 09:23:23;;;;;;;;;;;5.70;99.90;;;;;;5085489;28;19930;-78
2022/11/06 09:25:49;;;;;;;;;;;5.70;99.90;;;;;;5089805;28;19916;-78
2022/11/06 09:28:15;;;;;;;;;;;5.70;99.90;;;;;;5091574;28;19912;-75
2022/11/06 09:30:41;;;;;;;;;;;5.70;99.90;;;;;;5099508;28;19932;-74
2022/11/06 09:33:07;;;;;;;;;;;5.80;99.90;;;;;;5096687;28;19950;-73
2022/11/06 09:35:32;;;;;;;;;;;5.90;99.90;;;;;;5096838;28;19983;-74
2022/11/06 09:38:02;;;;;;;;;;;5.90;99.90;;;;;;5100152;28;19923;-73
2022/11/06 09:40:36;;;;;;;;;;;6.00;99.90;;;;;;5104488;28;19919;-73
2022/11/06 09:43:29;;;;;;;;;;;6.10;99.90;;;;;;5101582;28;19908;-74
2022/11/06 09:46:03;;;;;;;;;;;6.30;99.90;;;;;;5103952;28;19919;-73
2022/11/06 09:48:32;;;;;;;;;;;6.40;99.90;;;;;;5107014;28;19916;-73
2022/11/06 09:51:10;;;;;;;;;;;6.40;99.90;;;;;;5096110;28;19924;-74
2022/11/06 09:53:39;;;;;;;;;;;6.50;99.90;;;;;;5069556;28;19908;-74
2022/11/06 09:56:05;;;;;;;;;;;6.60;99.90;;;;;;5079744;28;19920;-73
2022/11/06 09:58:35;;;;;;;;;;;6.60;99.90;;;;;;5085808;28;19995;-75
2022/11/06 10:01:05;;;;;;;;;;;6.60;99.90;;;;;;5087348;28;19935;-75
2022/11/06 10:03:51;;;;;;;;;;;6.70;99.90;;;;;;5084273;28;19909;-75
2022/11/06 10:06:18;;;;;;;;;;;6.80;99.90;;;;;;5079688;28;19938;-73
2022/11/06 10:08:44;;;;;;;;;;;6.90;99.90;;;;;;5082420;28;20217;-73
2022/11/06 10:11:16;;;;;;;;;;;7.00;99.90;;;;;;5100183;28;19920;-73
2022/11/06 10:14:11;;;;;;;;;;;7.10;99.90;;;;;;5092341;28;20207;-74
2022/11/06 10:17:00;;;;;;;;;;;7.20;99.90;;;;;;5087052;28;19912;-74
2022/11/06 10:20:04;;;;;;;;;;;7.30;99.90;;;;;;5074047;28;20226;-73
2022/11/06 10:22:39;;;;;;;;;;;7.40;99.90;;;;;;5040738;28;19923;-74
2022/11/06 10:25:18;;;;;;;;;;;7.50;99.90;;;;;;5102766;28;19916;-73
2022/11/06 10:27:59;;;;;;;;;;;7.60;99.90;;;;;;5095574;28;20150;-74
2022/11/06 10:30:25;;;;;;;;;;;7.80;99.90;;;;;;5077515;28;19927;-74
2022/11/06 10:33:06;;;;;;;;;;;7.90;99.90;;;;;;5082844;28;20000;-75
2022/11/06 10:35:45;;;;;;;;;;;8.00;99.90;;;;;;5074599;28;19974;-74
2022/11/06 10:38:17;;;;;;;;;;;8.00;99.90;;;;;;5073766;28;19917;-73
2022/11/06 10:40:43;;;;;;;;;;;8.00;99.90;;;;;;5084950;28;19908;-74
2022/11/06 10:43:32;;;;;;;;;;;8.00;99.90;;;;;;5102870;28;19983;-75
2022/11/06 10:46:37;;;;;;;;;;;8.00;99.90;;;;;;5102713;28;19908;-74
2022/11/06 10:49:05;;;;;;;;;;;7.90;99.90;;;;;;5095866;28;19920;-73
2022/11/06 10:51:47;;;;;;;;;;;7.90;99.90;;;;;;5080312;28;19912;-73
2022/11/06 10:55:08;;;;;;;;;;;7.90;99.90;;;;;;5063153;28;19957;-73
2022/11/06 10:57:43;;;;;;;;;;;7.90;99.90;;;;;;5031081;28;19913;-73
2022/11/06 11:00:13;;;;;;;;;;;7.90;99.90;;;;;;5086594;28;19941;-74
2022/11/06 11:02:42;;;;;;;;;;;7.90;99.90;;;;;;5079220;28;19912;-73
2022/11/06 11:05:12;;;;;;;;;;;8.00;99.90;;;;;;5080756;28;19908;-74
2022/11/06 11:07:38;;;;;;;;;;;8.00;99.90;;;;;;5095980;28;19947;-73
2022/11/06 11:10:22;;;;;;;;;;;8.10;99.90;;;;;;5093598;28;19934;-74
2022/11/06 11:12:51;;;;;;;;;;;8.10;99.90;;;;;;5095280;28;20037;-73
2022/11/06 11:15:18;;;;;;;;;;;8.10;99.90;;;;;;5096059;28;19912;-73
2022/11/06 11:18:06;;;;;;;;;;;8.00;99.90;;;;;;5060906;28;20103;-72
2022/11/06 11:20:33;;;;;;;;;;;7.90;99.90;;;;;;5102181;28;19908;-73
2022/11/06 11:23:17;;;;;;;;;;;7.80;99.90;;;;;;5088758;28;19919;-74
2022/11/06 11:25:45;;;;;;;;;;;7.90;99.90;;;;;;5095984;28;19908;-75
2022/11/06 11:28:34;;;;;;;;;;;7.80;99.90;;;;;;5075694;28;20118;-75
2022/11/06 11:31:14;;;;;;;;;;;7.80;99.90;;;;;;5065373;28;19920;-74
2022/11/06 11:33:40;;;;;;;;;;;7.90;99.90;;;;;;5069951;28;19978;-76
2022/11/06 11:36:07;;;;;;;;;;;7.90;99.90;;;;;;5075607;28;19957;-77
2022/11/06 11:38:35;;;;;;;;;;;7.90;99.90;;;;;;5075185;28;19973;-78
2022/11/06 11:41:11;;;;;;;;;;;7.90;99.90;;;;;;5073743;28;20115;-76
2022/11/06 11:43:37;;;;;;;;;;;7.90;99.90;;;;;;5097224;28;20235;-76
2022/11/06 11:46:03;;;;;;;;;;;8.00;99.90;;;;;;5087591;28;19956;-78
2022/11/06 11:48:52;;;;;;;;;;;8.00;99.90;;;;;;5106391;28;19942;-78
2022/11/06 11:51:23;;;;;;;;;;;8.10;99.90;;;;;;5106695;28;20226;-78
2022/11/06 11:53:50;;;;;;;;;;;8.20;99.90;;;;;;5106797;28;20214;-77
2022/11/06 11:56:16;;;;;;;;;;;8.10;99.90;;;;;;5105331;28;19922;-78
2022/11/06 11:58:48;;;;;;;;;;;8.10;99.90;;;;;;5088504;28;19983;-77
2022/11/06 12:01:14;;;;;;;;;;;8.00;99.90;;;;;;5106735;28;19916;-78
2022/11/06 12:03:41;;;;;;;;;;;8.00;99.90;;;;;;5105677;28;19938;-77
2022/11/06 12:06:11;;;;;;;;;;;8.00;99.90;;;;;;5106391;28;19908;-77
2022/11/06 12:08:38;;;;;;;;;;;8.10;99.90;;;;;;5106663;28;19943;-77
2022/11/06 12:11:03;;;;;;;;;;;8.00;99.90;;;;;;5089255;28;19908;-78
2022/11/06 12:13:29;;;;;;;;;;;8.00;99.90;;;;;;5065580;28;20351;-78
2022/11/06 12:16:00;;;;;;;;;;;8.00;99.90;;;;;;5094396;28;19940;-78
2022/11/06 12:18:31;;;;;;;;;;;8.00;99.90;;;;;;5093752;28;20215;-78
2022/11/06 12:21:06;;;;;;;;;;;8.00;99.90;;;;;;5076233;28;19920;-77
2022/11/06 12:23:58;;;;;;;;;;;7.90;99.90;;;;;;5079113;28;19943;-77
2022/11/06 12:26:45;;;;;;;;;;;7.90;99.90;;;;;;5093382;28;20273;-77
2022/11/06 12:29:22;;;;;;;;;;;7.90;99.90;;;;;;5092266;28;19920;-77
2022/11/06 12:31:51;;;;;;;;;;;7.90;99.90;;;;;;5059268;28;20199;-77
2022/11/06 12:34:21;;;;;;;;;;;7.90;99.90;;;;;;5071284;28;19924;-77
2022/11/06 12:37:19;;;;;;;;;;;7.90;99.90;;;;;;5087735;28;19935;-77
2022/11/06 12:39:58;;;;;;;;;;;7.90;99.90;;;;;;5083149;28;19950;-77
2022/11/06 12:42:26;;;;;;;;;;;7.90;99.90;;;;;;5082064;28;19931;-77
2022/11/06 12:44:52;;;;;;;;;;;8.00;99.90;;;;;;5081759;28;19908;-77
2022/11/06 12:47:17;;;;;;;;;;;8.10;99.90;;;;;;5105064;28;20018;-77
2022/11/06 12:50:03;;;;;;;;;;;8.20;99.90;;;;;;5102292;28;19912;-76
2022/11/06 12:52:41;;;;;;;;;;;8.30;99.90;;;;;;5083828;28;19951;-77
2022/11/06 12:55:22;;;;;;;;;;;8.40;99.90;;;;;;5072909;28;20190;-76
2022/11/06 12:58:16;;;;;;;;;;;8.40;99.90;;;;;;5085979;28;19916;-76
2022/11/06 13:01:07;;;;;;;;;;;8.50;99.90;;;;;;5089639;28;19908;-76
2022/11/06 13:03:33;;;;;;;;;;;8.50;99.90;;;;;;5081436;28;19995;-76
2022/11/06 13:06:02;;;;;;;;;;;8.60;99.90;;;;;;5101799;28;19920;-76
2022/11/06 13:09:15;;;;;;;;;;;8.60;99.90;;;;;;5085401;28;19975;-77
2022/11/06 13:11:47;;;;;;;;;;;8.70;99.90;;;;;;5058598;28;19923;-77
2022/11/06 13:14:55;;;;;;;;;;;8.70;99.90;;;;;;5067341;28;19917;-77
2022/11/06 13:17:24;;;;;;;;;;;8.70;99.90;;;;;;5060860;28;19988;-76
2022/11/06 13:20:24;;;;;;;;;;;8.80;99.90;;;;;;5084672;28;19916;-77
2022/11/06 13:23:06;;;;;;;;;;;8.90;99.90;;;;;;5099203;28;19983;-77
2022/11/06 13:25:54;;;;;;;;;;;8.90;99.90;;;;;;5112401;28;19915;-77
2022/11/06 13:28:27;;;;;;;;;;;8.90;99.90;;;;;;5098493;28;19916;-77
2022/11/06 13:30:52;;;;;;;;;;;9.00;99.90;;;;;;5103772;28;19983;-76
2022/11/06 13:33:33;;;;;;;;;;;9.00;99.90;;;;;;5103630;28;19908;-78
2022/11/06 13:35:59;;;;;;;;;;;9.00;99.90;;;;;;5104550;28;19916;-78
2022/11/06 13:38:29;;;;;;;;;;;9.10;99.90;;;;;;5103353;28;20160;-77
2022/11/06 13:40:57;;;;;;;;;;;9.10;99.90;;;;;;5081158;28;20018;-77
2022/11/06 13:43:27;;;;;;;;;;;9.10;99.90;;;;;;5094937;28;19907;-77
2022/11/06 13:46:15;;;;;;;;;;;9.10;99.90;;;;;;5118992;28;19945;-77
2022/11/06 13:48:59;;;;;;;;;;;9.20;99.90;;;;;;5104286;28;20226;-74
2022/11/06 13:51:27;;;;;;;;;;;9.10;99.90;;;;;;5103930;28;19916;-74
2022/11/06 13:54:03;;;;;;;;;;;9.20;99.90;;;;;;5104432;28;19914;-74
2022/11/06 13:56:47;;;;;;;;;;;9.20;99.90;;;;;;5105937;28;19911;-77
2022/11/06 13:59:39;;;;;;;;;;;9.30;99.90;;;;;;5097752;28;19916;-73
2022/11/06 14:02:17;;;;;;;;;;;9.30;99.90;;;;;;5091594;28;19916;-74
2022/11/06 14:05:04;;;;;;;;;;;9.20;99.90;;;;;;5065634;28;19920;-75
2022/11/06 14:07:29;;;;;;;;;;;9.20;99.90;;;;;;5083303;28;19951;-75
2022/11/06 14:09:55;;;;;;;;;;;9.20;99.90;;;;;;5083255;28;19915;-75
2022/11/06 14:12:21;;;;;;;;;;;9.20;99.90;;;;;;5083596;28;20261;-75
2022/11/06 14:14:47;;;;;;;;;;;9.20;99.90;;;;;;5083519;28;20218;-73
2022/11/06 14:17:15;;;;;;;;;;;9.30;99.90;;;;;;5083315;28;19916;-73
2022/11/06 14:19:48;;;;;;;;;;;9.20;99.90;;;;;;5083175;28;19909;-74
2022/11/06 14:22:16;;;;;;;;;;;9.20;99.90;;;;;;5066901;28;19913;-76
2022/11/06 14:24:42;;;;;;;;;;;9.20;99.90;;;;;;5085855;28;19923;-74
2022/11/06 14:27:28;;;;;;;;;;;9.30;99.90;;;;;;5103384;28;20154;-71
2022/11/06 14:30:00;;;;;;;;;;;9.40;99.90;;;;;;5102064;28;19915;-71
2022/11/06 14:32:56;;;;;;;;;;;9.40;99.90;;;;;;5102152;28;19916;-72
2022/11/06 14:35:27;;;;;;;;;;;9.40;99.90;;;;;;5093406;28;19916;-74
2022/11/06 14:38:08;;;;;;;;;;;9.30;99.90;;;;;;5101574;28;19912;-70
2022/11/06 14:40:37;;;;;;;;;;;9.40;99.90;;;;;;5103325;28;20480;-70
2022/11/06 14:43:31;;;;;;;;;;;9.30;99.90;;;;;;5085346;28;19918;-70
2022/11/06 14:46:05;;;;;;;;;;;9.30;99.90;;;;;;5101954;28;19908;-71
2022/11/06 14:48:37;;;;;;;;;;;9.20;99.90;;;;;;5103180;28;19939;-69
2022/11/06 14:51:04;;;;;;;;;;;9.20;99.90;;;;;;5098457;28;19972;-69
2022/11/06 14:53:36;;;;;;;;;;;9.20;99.90;;;;;;5089725;28;19916;-70
2022/11/06 14:56:08;;;;;;;;;;;9.10;99.90;;;;;;5102495;28;19912;-69
2022/11/06 14:58:38;;;;;;;;;;;9.00;99.90;;;;;;5085016;28;19920;-69
2022/11/06 15:01:09;;;;;;;;;;;9.00;99.90;;;;;;5103235;28;19994;-70
2022/11/06 15:03:50;;;;;;;;;;;8.90;99.90;;;;;;5102971;28;19991;-69
2022/11/06 15:06:15;;;;;;;;;;;8.90;99.90;;;;;;5084638;28;19908;-69
2022/11/06 15:08:44;;;;;;;;;;;8.80;99.90;;;;;;5102488;28;19939;-69